sensor_id;sensor_type;location;lat;lon;timestamp;P1;durP1;ratioP1;P2;durP2;ratioP2
40052;SDS011;25758;48.200;16.338;2023-12-20T00:00:42;41.43;;;24.90;;
40052;SDS011;25758;48.200;16.338;2023-12-20T00:06:17;46.20;;;23.77;;
40052;SDS011;25758;48.200;16.338;2023-12-20T00:08:42;39.47;;;24.13;;
40052;SDS011;25758;48.200;16.338;2023-12-20T00:11:13;38.30;;;24.00;;
40052;SDS011;25758;48.200;16.338;2023-12-20T00:13:39;40.30;;;23.00;;
40052;SDS011;25758;48.200;16.338;2023-12-20T00:16:04;36.43;;;22.27;;
40052;SDS011;25758;48.200;16.338;2023-12-20T00:18:30;39.73;;;23.93;;
40052;SDS011;25758;48.200;16.338;2023-12-20T00:20:56;39.90;;;24.30;;
40052;SDS011;25758;48.200;16.338;2023-12-20T00:23:21;40.47;;;23.53;;
40052;SDS011;25758;48.200;16.338;2023-12-20T00:25:48;35.63;;;21.67;;
40052;SDS011;25758;48.200;16.338;2023-12-20T00:28:14;38.53;;;23.37;;
40052;SDS011;25758;48.200;16.338;2023-12-20T00:30:39;40.90;;;22.97;;
40052;SDS011;25758;48.200;16.338;2023-12-20T00:33:05;38.63;;;23.10;;
40052;SDS011;25758;48.200;16.338;2023-12-20T00:35:30;41.50;;;23.00;;
40052;SDS011;25758;48.200;16.338;2023-12-20T00:37:56;41.37;;;23.03;;
40052;SDS011;25758;48.200;16.338;2023-12-20T00:40:24;33.17;;;21.53;;
40052;SDS011;25758;48.200;16.338;2023-12-20T00:45:40;40.60;;;22.63;;
40052;SDS011;25758;48.200;16.338;2023-12-20T00:48:06;35.30;;;21.37;;
40052;SDS011;25758;48.200;16.338;2023-12-20T00:50:32;34.00;;;21.17;;
40052;SDS011;25758;48.200;16.338;2023-12-20T00:52:57;39.70;;;21.43;;
40052;SDS011;25758;48.200;16.338;2023-12-20T00:55:23;39.45;;;22.10;;
40052;SDS011;25758;48.200;16.338;2023-12-20T00:57:49;36.47;;;20.83;;
40052;SDS011;25758;48.200;16.338;2023-12-20T01:00:15;36.10;;;19.70;;
40052;SDS011;25758;48.200;16.338;2023-12-20T01:02:41;35.50;;;20.08;;
40052;SDS011;25758;48.200;16.338;2023-12-20T01:05:13;34.55;;;20.30;;
40052;SDS011;25758;48.200;16.338;2023-12-20T01:11:14;33.80;;;19.80;;
40052;SDS011;25758;48.200;16.338;2023-12-20T01:13:39;34.70;;;19.52;;
40052;SDS011;25758;48.200;16.338;2023-12-20T01:16:05;33.38;;;18.40;;
40052;SDS011;25758;48.200;16.338;2023-12-20T01:18:31;29.98;;;19.70;;
40052;SDS011;25758;48.200;16.338;2023-12-20T01:21:00;41.10;;;20.00;;
40052;SDS011;25758;48.200;16.338;2023-12-20T01:23:28;31.00;;;18.50;;
40052;SDS011;25758;48.200;16.338;2023-12-20T01:25:54;30.83;;;17.88;;
40052;SDS011;25758;48.200;16.338;2023-12-20T01:28:20;31.45;;;19.42;;
40052;SDS011;25758;48.200;16.338;2023-12-20T01:30:46;32.63;;;18.05;;
40052;SDS011;25758;48.200;16.338;2023-12-20T01:33:12;32.03;;;19.35;;
40052;SDS011;25758;48.200;16.338;2023-12-20T01:35:41;28.77;;;20.00;;
40052;SDS011;25758;48.200;16.338;2023-12-20T01:40:57;30.67;;;18.10;;
40052;SDS011;25758;48.200;16.338;2023-12-20T01:43:23;31.77;;;19.27;;
40052;SDS011;25758;48.200;16.338;2023-12-20T01:45:49;27.25;;;15.82;;
40052;SDS011;25758;48.200;16.338;2023-12-20T01:48:15;26.08;;;17.05;;
40052;SDS011;25758;48.200;16.338;2023-12-20T01:50:41;32.10;;;17.13;;
40052;SDS011;25758;48.200;16.338;2023-12-20T01:53:09;25.67;;;16.02;;
40052;SDS011;25758;48.200;16.338;2023-12-20T01:55:38;25.75;;;16.70;;
40052;SDS011;25758;48.200;16.338;2023-12-20T01:58:05;26.13;;;16.75;;
40052;SDS011;25758;48.200;16.338;2023-12-20T02:00:32;26.77;;;16.15;;
40052;SDS011;25758;48.200;16.338;2023-12-20T02:03:00;27.95;;;17.15;;
40052;SDS011;25758;48.200;16.338;2023-12-20T02:05:27;27.02;;;17.30;;
40052;SDS011;25758;48.200;16.338;2023-12-20T02:07:53;29.02;;;16.75;;
40052;SDS011;25758;48.200;16.338;2023-12-20T02:10:30;32.78;;;19.27;;
40052;SDS011;25758;48.200;16.338;2023-12-20T02:12:56;30.50;;;18.35;;
40052;SDS011;25758;48.200;16.338;2023-12-20T02:15:21;31.85;;;17.83;;
40052;SDS011;25758;48.200;16.338;2023-12-20T02:17:47;28.02;;;16.95;;
40052;SDS011;25758;48.200;16.338;2023-12-20T02:20:13;28.05;;;15.95;;
40052;SDS011;25758;48.200;16.338;2023-12-20T02:22:39;28.08;;;16.33;;
40052;SDS011;25758;48.200;16.338;2023-12-20T02:25:05;29.27;;;17.70;;
40052;SDS011;25758;48.200;16.338;2023-12-20T02:27:31;29.40;;;16.95;;
40052;SDS011;25758;48.200;16.338;2023-12-20T02:29:57;28.02;;;17.05;;
40052;SDS011;25758;48.200;16.338;2023-12-20T02:32:22;26.45;;;15.93;;
40052;SDS011;25758;48.200;16.338;2023-12-20T02:34:53;30.42;;;16.67;;
40052;SDS011;25758;48.200;16.338;2023-12-20T02:37:19;29.23;;;16.60;;
40052;SDS011;25758;48.200;16.338;2023-12-20T02:39:45;25.35;;;14.95;;
40052;SDS011;25758;48.200;16.338;2023-12-20T02:42:17;26.27;;;15.45;;
40052;SDS011;25758;48.200;16.338;2023-12-20T02:44:42;25.90;;;13.30;;
40052;SDS011;25758;48.200;16.338;2023-12-20T02:47:08;23.85;;;12.90;;
40052;SDS011;25758;48.200;16.338;2023-12-20T02:49:34;21.63;;;13.47;;
40052;SDS011;25758;48.200;16.338;2023-12-20T02:52:00;22.80;;;13.00;;
40052;SDS011;25758;48.200;16.338;2023-12-20T02:54:26;18.43;;;11.47;;
40052;SDS011;25758;48.200;16.338;2023-12-20T02:56:52;16.83;;;9.13;;
40052;SDS011;25758;48.200;16.338;2023-12-20T02:59:18;18.87;;;9.17;;
40052;SDS011;25758;48.200;16.338;2023-12-20T03:01:44;10.37;;;6.13;;
40052;SDS011;25758;48.200;16.338;2023-12-20T03:04:11;10.30;;;5.75;;
40052;SDS011;25758;48.200;16.338;2023-12-20T03:06:37;17.98;;;9.85;;
40052;SDS011;25758;48.200;16.338;2023-12-20T03:09:03;16.90;;;9.10;;
40052;SDS011;25758;48.200;16.338;2023-12-20T03:11:29;15.38;;;9.98;;
40052;SDS011;25758;48.200;16.338;2023-12-20T03:13:56;18.33;;;10.07;;
40052;SDS011;25758;48.200;16.338;2023-12-20T03:16:22;16.35;;;9.50;;
40052;SDS011;25758;48.200;16.338;2023-12-20T03:18:48;19.15;;;10.20;;
40052;SDS011;25758;48.200;16.338;2023-12-20T03:21:15;13.05;;;8.35;;
40052;SDS011;25758;48.200;16.338;2023-12-20T03:23:40;18.20;;;9.40;;
40052;SDS011;25758;48.200;16.338;2023-12-20T03:26:07;17.17;;;9.55;;
40052;SDS011;25758;48.200;16.338;2023-12-20T03:28:33;15.55;;;9.20;;
40052;SDS011;25758;48.200;16.338;2023-12-20T03:31:06;14.18;;;9.10;;
40052;SDS011;25758;48.200;16.338;2023-12-20T03:33:32;14.33;;;9.43;;
40052;SDS011;25758;48.200;16.338;2023-12-20T03:35:57;14.32;;;8.57;;
40052;SDS011;25758;48.200;16.338;2023-12-20T03:38:23;12.18;;;8.57;;
40052;SDS011;25758;48.200;16.338;2023-12-20T03:40:55;15.23;;;8.98;;
40052;SDS011;25758;48.200;16.338;2023-12-20T03:46:47;12.98;;;7.72;;
40052;SDS011;25758;48.200;16.338;2023-12-20T03:49:31;12.93;;;8.38;;
40052;SDS011;25758;48.200;16.338;2023-12-20T03:51:57;14.13;;;8.32;;
40052;SDS011;25758;48.200;16.338;2023-12-20T03:54:24;10.30;;;7.25;;
40052;SDS011;25758;48.200;16.338;2023-12-20T03:56:49;14.52;;;7.90;;
40052;SDS011;25758;48.200;16.338;2023-12-20T03:59:15;13.68;;;7.85;;
40052;SDS011;25758;48.200;16.338;2023-12-20T04:01:45;18.27;;;9.48;;
40052;SDS011;25758;48.200;16.338;2023-12-20T04:04:11;11.32;;;7.45;;
40052;SDS011;25758;48.200;16.338;2023-12-20T04:06:37;9.10;;;6.55;;
40052;SDS011;25758;48.200;16.338;2023-12-20T04:09:03;10.95;;;6.68;;
40052;SDS011;25758;48.200;16.338;2023-12-20T04:11:29;12.15;;;6.97;;
40052;SDS011;25758;48.200;16.338;2023-12-20T04:13:55;10.25;;;6.88;;
40052;SDS011;25758;48.200;16.338;2023-12-20T04:16:21;12.48;;;8.30;;
40052;SDS011;25758;48.200;16.338;2023-12-20T04:18:47;13.88;;;8.70;;
40052;SDS011;25758;48.200;16.338;2023-12-20T04:24:05;13.52;;;9.18;;
40052;SDS011;25758;48.200;16.338;2023-12-20T04:26:31;12.70;;;8.00;;
40052;SDS011;25758;48.200;16.338;2023-12-20T04:29:00;13.50;;;8.32;;
40052;SDS011;25758;48.200;16.338;2023-12-20T04:31:25;12.65;;;7.22;;
40052;SDS011;25758;48.200;16.338;2023-12-20T04:33:51;16.05;;;8.68;;
40052;SDS011;25758;48.200;16.338;2023-12-20T04:36:21;11.57;;;7.25;;
40052;SDS011;25758;48.200;16.338;2023-12-20T04:38:47;11.68;;;6.82;;
40052;SDS011;25758;48.200;16.338;2023-12-20T04:41:13;12.30;;;7.30;;
40052;SDS011;25758;48.200;16.338;2023-12-20T04:43:41;13.32;;;8.32;;
40052;SDS011;25758;48.200;16.338;2023-12-20T04:46:07;10.05;;;6.60;;
40052;SDS011;25758;48.200;16.338;2023-12-20T04:48:33;13.65;;;6.22;;
40052;SDS011;25758;48.200;16.338;2023-12-20T04:50:58;12.15;;;4.80;;
40052;SDS011;25758;48.200;16.338;2023-12-20T04:53:24;5.07;;;2.90;;
40052;SDS011;25758;48.200;16.338;2023-12-20T04:55:50;3.85;;;2.10;;
40052;SDS011;25758;48.200;16.338;2023-12-20T04:58:15;4.00;;;1.48;;
40052;SDS011;25758;48.200;16.338;2023-12-20T05:00:41;3.30;;;1.48;;
40052;SDS011;25758;48.200;16.338;2023-12-20T05:03:06;2.95;;;1.40;;
40052;SDS011;25758;48.200;16.338;2023-12-20T05:05:39;2.97;;;1.73;;
40052;SDS011;25758;48.200;16.338;2023-12-20T05:08:09;3.50;;;1.52;;
40052;SDS011;25758;48.200;16.338;2023-12-20T05:10:34;6.70;;;1.35;;
40052;SDS011;25758;48.200;16.338;2023-12-20T05:13:01;3.38;;;1.60;;
40052;SDS011;25758;48.200;16.338;2023-12-20T05:18:33;2.95;;;1.10;;
40052;SDS011;25758;48.200;16.338;2023-12-20T05:20:59;2.83;;;1.20;;
40052;SDS011;25758;48.200;16.338;2023-12-20T05:23:28;4.68;;;1.42;;
40052;SDS011;25758;48.200;16.338;2023-12-20T05:29:29;9.00;;;1.55;;
40052;SDS011;25758;48.200;16.338;2023-12-20T05:35:19;3.83;;;1.52;;
40052;SDS011;25758;48.200;16.338;2023-12-20T05:37:45;4.40;;;2.15;;
40052;SDS011;25758;48.200;16.338;2023-12-20T05:40:10;3.67;;;1.75;;
40052;SDS011;25758;48.200;16.338;2023-12-20T05:42:36;3.13;;;1.63;;
40052;SDS011;25758;48.200;16.338;2023-12-20T05:45:05;4.55;;;1.73;;
40052;SDS011;25758;48.200;16.338;2023-12-20T05:47:35;3.63;;;1.45;;
40052;SDS011;25758;48.200;16.338;2023-12-20T05:50:05;5.72;;;1.88;;
40052;SDS011;25758;48.200;16.338;2023-12-20T05:52:31;6.07;;;1.75;;
40052;SDS011;25758;48.200;16.338;2023-12-20T05:54:57;3.63;;;1.65;;
40052;SDS011;25758;48.200;16.338;2023-12-20T06:03:32;4.10;;;1.55;;
40052;SDS011;25758;48.200;16.338;2023-12-20T06:05:58;5.28;;;2.13;;
40052;SDS011;25758;48.200;16.338;2023-12-20T06:08:34;3.20;;;1.50;;
40052;SDS011;25758;48.200;16.338;2023-12-20T06:11:00;4.25;;;1.63;;
40052;SDS011;25758;48.200;16.338;2023-12-20T06:13:26;4.43;;;1.58;;
40052;SDS011;25758;48.200;16.338;2023-12-20T06:15:52;5.43;;;1.48;;
40052;SDS011;25758;48.200;16.338;2023-12-20T06:18:19;3.63;;;1.60;;
40052;SDS011;25758;48.200;16.338;2023-12-20T06:20:45;6.22;;;1.48;;
40052;SDS011;25758;48.200;16.338;2023-12-20T06:23:10;4.80;;;1.17;;
40052;SDS011;25758;48.200;16.338;2023-12-20T06:25:39;4.05;;;1.50;;
40052;SDS011;25758;48.200;16.338;2023-12-20T06:28:05;4.78;;;2.15;;
40052;SDS011;25758;48.200;16.338;2023-12-20T06:30:31;3.80;;;1.67;;
40052;SDS011;25758;48.200;16.338;2023-12-20T06:32:58;3.40;;;1.60;;
40052;SDS011;25758;48.200;16.338;2023-12-20T06:35:24;4.97;;;1.55;;
40052;SDS011;25758;48.200;16.338;2023-12-20T06:37:49;3.05;;;1.50;;
40052;SDS011;25758;48.200;16.338;2023-12-20T06:40:15;4.22;;;1.20;;
40052;SDS011;25758;48.200;16.338;2023-12-20T06:42:41;2.20;;;1.23;;
40052;SDS011;25758;48.200;16.338;2023-12-20T06:45:07;4.95;;;1.80;;
40052;SDS011;25758;48.200;16.338;2023-12-20T06:47:33;3.30;;;1.33;;
40052;SDS011;25758;48.200;16.338;2023-12-20T06:50:16;5.82;;;1.60;;
40052;SDS011;25758;48.200;16.338;2023-12-20T06:52:41;3.03;;;1.00;;
40052;SDS011;25758;48.200;16.338;2023-12-20T06:55:07;2.40;;;1.20;;
40052;SDS011;25758;48.200;16.338;2023-12-20T06:57:32;4.82;;;1.17;;
40052;SDS011;25758;48.200;16.338;2023-12-20T06:59:58;6.03;;;1.80;;
40052;SDS011;25758;48.200;16.338;2023-12-20T07:02:24;1.70;;;0.90;;
40052;SDS011;25758;48.200;16.338;2023-12-20T07:04:49;3.03;;;1.42;;
40052;SDS011;25758;48.200;16.338;2023-12-20T07:07:15;6.80;;;1.63;;
40052;SDS011;25758;48.200;16.338;2023-12-20T07:09:40;3.67;;;1.38;;
40052;SDS011;25758;48.200;16.338;2023-12-20T07:12:08;4.03;;;2.22;;
40052;SDS011;25758;48.200;16.338;2023-12-20T07:14:46;3.17;;;1.10;;
40052;SDS011;25758;48.200;16.338;2023-12-20T07:17:12;4.35;;;1.30;;
40052;SDS011;25758;48.200;16.338;2023-12-20T07:19:39;2.50;;;1.27;;
40052;SDS011;25758;48.200;16.338;2023-12-20T07:22:05;8.02;;;1.25;;
40052;SDS011;25758;48.200;16.338;2023-12-20T07:24:31;6.18;;;1.60;;
40052;SDS011;25758;48.200;16.338;2023-12-20T07:27:01;5.07;;;1.30;;
40052;SDS011;25758;48.200;16.338;2023-12-20T07:29:27;5.22;;;2.05;;
40052;SDS011;25758;48.200;16.338;2023-12-20T07:31:53;10.32;;;1.90;;
40052;SDS011;25758;48.200;16.338;2023-12-20T07:34:19;3.67;;;1.90;;
40052;SDS011;25758;48.200;16.338;2023-12-20T07:36:45;4.00;;;1.60;;
40052;SDS011;25758;48.200;16.338;2023-12-20T07:39:12;6.53;;;1.63;;
40052;SDS011;25758;48.200;16.338;2023-12-20T07:41:38;4.07;;;1.27;;
40052;SDS011;25758;48.200;16.338;2023-12-20T07:44:04;3.80;;;1.65;;
40052;SDS011;25758;48.200;16.338;2023-12-20T07:46:30;4.75;;;3.13;;
40052;SDS011;25758;48.200;16.338;2023-12-20T07:48:56;9.85;;;2.72;;
40052;SDS011;25758;48.200;16.338;2023-12-20T07:51:21;6.57;;;1.67;;
40052;SDS011;25758;48.200;16.338;2023-12-20T07:53:51;6.00;;;1.60;;
40052;SDS011;25758;48.200;16.338;2023-12-20T07:56:34;4.20;;;1.83;;
40052;SDS011;25758;48.200;16.338;2023-12-20T07:59:00;8.57;;;2.42;;
40052;SDS011;25758;48.200;16.338;2023-12-20T08:01:26;3.58;;;1.70;;
40052;SDS011;25758;48.200;16.338;2023-12-20T08:04:07;4.57;;;1.58;;
40052;SDS011;25758;48.200;16.338;2023-12-20T08:09:18;3.17;;;1.23;;
40052;SDS011;25758;48.200;16.338;2023-12-20T08:11:47;3.70;;;1.60;;
40052;SDS011;25758;48.200;16.338;2023-12-20T08:14:23;6.88;;;2.35;;
40052;SDS011;25758;48.200;16.338;2023-12-20T08:16:49;2.75;;;1.65;;
40052;SDS011;25758;48.200;16.338;2023-12-20T08:19:27;4.45;;;1.77;;
40052;SDS011;25758;48.200;16.338;2023-12-20T08:21:52;11.88;;;3.42;;
40052;SDS011;25758;48.200;16.338;2023-12-20T08:24:18;7.70;;;2.92;;
40052;SDS011;25758;48.200;16.338;2023-12-20T08:26:44;4.07;;;1.65;;
40052;SDS011;25758;48.200;16.338;2023-12-20T08:29:12;5.95;;;1.77;;
40052;SDS011;25758;48.200;16.338;2023-12-20T08:31:52;9.32;;;1.77;;
40052;SDS011;25758;48.200;16.338;2023-12-20T08:40:15;4.13;;;1.55;;
40052;SDS011;25758;48.200;16.338;2023-12-20T08:42:41;3.85;;;1.73;;
40052;SDS011;25758;48.200;16.338;2023-12-20T08:45:19;6.10;;;1.38;;
40052;SDS011;25758;48.200;16.338;2023-12-20T08:50:32;2.60;;;1.40;;
40052;SDS011;25758;48.200;16.338;2023-12-20T08:52:59;4.32;;;1.98;;
40052;SDS011;25758;48.200;16.338;2023-12-20T09:04:43;3.85;;;1.90;;
40052;SDS011;25758;48.200;16.338;2023-12-20T09:10:15;4.18;;;2.22;;
40052;SDS011;25758;48.200;16.338;2023-12-20T09:25:26;2.63;;;1.17;;
40052;SDS011;25758;48.200;16.338;2023-12-20T09:27:55;2.42;;;1.25;;
40052;SDS011;25758;48.200;16.338;2023-12-20T09:30:28;3.15;;;1.20;;
40052;SDS011;25758;48.200;16.338;2023-12-20T09:35:41;1.90;;;0.90;;
40052;SDS011;25758;48.200;16.338;2023-12-20T09:38:07;5.07;;;1.40;;
40052;SDS011;25758;48.200;16.338;2023-12-20T09:40:44;3.58;;;0.95;;
40052;SDS011;25758;48.200;16.338;2023-12-20T09:50:25;1.48;;;0.47;;
40052;SDS011;25758;48.200;16.338;2023-12-20T09:52:52;1.30;;;0.32;;
40052;SDS011;25758;48.200;16.338;2023-12-20T09:55:18;0.88;;;0.35;;
40052;SDS011;25758;48.200;16.338;2023-12-20T09:57:45;2.15;;;0.57;;
40052;SDS011;25758;48.200;16.338;2023-12-20T10:03:51;1.42;;;0.55;;
40052;SDS011;25758;48.200;16.338;2023-12-20T10:06:39;2.45;;;0.88;;
40052;SDS011;25758;48.200;16.338;2023-12-20T10:09:05;1.83;;;1.05;;
40052;SDS011;25758;48.200;16.338;2023-12-20T10:11:31;3.28;;;0.90;;
40052;SDS011;25758;48.200;16.338;2023-12-20T10:14:00;3.35;;;1.17;;
40052;SDS011;25758;48.200;16.338;2023-12-20T10:19:48;3.22;;;1.42;;
40052;SDS011;25758;48.200;16.338;2023-12-20T10:31:27;2.28;;;1.13;;
40052;SDS011;25758;48.200;16.338;2023-12-20T10:34:08;4.35;;;1.48;;
40052;SDS011;25758;48.200;16.338;2023-12-20T10:43:22;2.58;;;1.30;;
40052;SDS011;25758;48.200;16.338;2023-12-20T10:45:56;2.17;;;0.60;;
40052;SDS011;25758;48.200;16.338;2023-12-20T10:48:22;1.33;;;0.70;;
40052;SDS011;25758;48.200;16.338;2023-12-20T10:50:54;2.97;;;0.98;;
40052;SDS011;25758;48.200;16.338;2023-12-20T11:03:43;3.95;;;2.00;;
40052;SDS011;25758;48.200;16.338;2023-12-20T11:23:00;65.72;;;38.92;;
40052;SDS011;25758;48.200;16.338;2023-12-20T11:25:26;3.05;;;1.23;;
40052;SDS011;25758;48.200;16.338;2023-12-20T11:28:08;2.60;;;1.50;;
40052;SDS011;25758;48.200;16.338;2023-12-20T11:30:48;2.38;;;1.08;;
40052;SDS011;25758;48.200;16.338;2023-12-20T11:59:54;1.83;;;0.55;;
40052;SDS011;25758;48.200;16.338;2023-12-20T12:02:20;0.90;;;0.40;;
40052;SDS011;25758;48.200;16.338;2023-12-20T12:04:48;2.72;;;0.55;;
40052;SDS011;25758;48.200;16.338;2023-12-20T12:10:40;1.70;;;0.35;;
40052;SDS011;25758;48.200;16.338;2023-12-20T12:13:06;0.70;;;0.30;;
40052;SDS011;25758;48.200;16.338;2023-12-20T12:18:43;1.42;;;0.40;;
40052;SDS011;25758;48.200;16.338;2023-12-20T12:21:19;2.17;;;0.88;;
40052;SDS011;25758;48.200;16.338;2023-12-20T12:23:45;3.50;;;1.00;;
40052;SDS011;25758;48.200;16.338;2023-12-20T12:26:11;4.68;;;1.10;;
40052;SDS011;25758;48.200;16.338;2023-12-20T12:52:08;1.13;;;0.47;;
40052;SDS011;25758;48.200;16.338;2023-12-20T12:54:34;1.90;;;0.50;;
40052;SDS011;25758;48.200;16.338;2023-12-20T13:00:14;1.40;;;0.40;;
40052;SDS011;25758;48.200;16.338;2023-12-20T13:02:40;1.30;;;0.50;;
40052;SDS011;25758;48.200;16.338;2023-12-20T13:05:07;1.00;;;0.45;;
40052;SDS011;25758;48.200;16.338;2023-12-20T13:07:38;2.38;;;0.82;;
40052;SDS011;25758;48.200;16.338;2023-12-20T13:10:12;1.77;;;0.60;;
40052;SDS011;25758;48.200;16.338;2023-12-20T13:12:41;5.90;;;0.70;;
40052;SDS011;25758;48.200;16.338;2023-12-20T13:15:07;1.40;;;0.50;;
40052;SDS011;25758;48.200;16.338;2023-12-20T13:17:34;3.67;;;1.00;;
40052;SDS011;25758;48.200;16.338;2023-12-20T13:47:23;2.80;;;1.30;;
40052;SDS011;25758;48.200;16.338;2023-12-20T13:49:49;6.60;;;0.90;;
40052;SDS011;25758;48.200;16.338;2023-12-20T13:52:14;1.83;;;0.60;;
40052;SDS011;25758;48.200;16.338;2023-12-20T13:57:52;5.32;;;2.00;;
40052;SDS011;25758;48.200;16.338;2023-12-20T14:00:18;3.88;;;1.42;;
40052;SDS011;25758;48.200;16.338;2023-12-20T14:02:44;5.32;;;1.50;;
40052;SDS011;25758;48.200;16.338;2023-12-20T14:28:55;1.80;;;0.60;;
40052;SDS011;25758;48.200;16.338;2023-12-20T14:31:21;1.65;;;0.43;;
40052;SDS011;25758;48.200;16.338;2023-12-20T14:34:09;2.15;;;0.38;;
40052;SDS011;25758;48.200;16.338;2023-12-20T14:39:58;1.10;;;0.30;;
40052;SDS011;25758;48.200;16.338;2023-12-20T14:45:29;2.47;;;0.20;;
40052;SDS011;25758;48.200;16.338;2023-12-20T14:47:54;1.65;;;0.45;;
40052;SDS011;25758;48.200;16.338;2023-12-20T14:53:47;2.17;;;0.68;;
40052;SDS011;25758;48.200;16.338;2023-12-20T14:56:13;5.78;;;1.42;;
40052;SDS011;25758;48.200;16.338;2023-12-20T14:58:38;2.65;;;0.77;;
40052;SDS011;25758;48.200;16.338;2023-12-20T15:01:08;1.25;;;0.40;;
40052;SDS011;25758;48.200;16.338;2023-12-20T15:03:34;2.47;;;0.60;;
40052;SDS011;25758;48.200;16.338;2023-12-20T15:06:00;2.53;;;0.80;;
40052;SDS011;25758;48.200;16.338;2023-12-20T15:11:50;2.47;;;0.40;;
40052;SDS011;25758;48.200;16.338;2023-12-20T15:14:15;1.55;;;0.40;;
40052;SDS011;25758;48.200;16.338;2023-12-20T15:17:01;0.88;;;0.40;;
40052;SDS011;25758;48.200;16.338;2023-12-20T15:19:27;6.28;;;0.43;;
40052;SDS011;25758;48.200;16.338;2023-12-20T15:21:53;0.98;;;0.47;;
40052;SDS011;25758;48.200;16.338;2023-12-20T15:24:18;1.10;;;0.30;;
40052;SDS011;25758;48.200;16.338;2023-12-20T15:26:51;0.60;;;0.20;;
40052;SDS011;25758;48.200;16.338;2023-12-20T15:32:20;3.05;;;0.30;;
40052;SDS011;25758;48.200;16.338;2023-12-20T15:34:46;1.75;;;0.50;;
40052;SDS011;25758;48.200;16.338;2023-12-20T15:37:11;2.05;;;0.68;;
40052;SDS011;25758;48.200;16.338;2023-12-20T15:45:44;1.33;;;0.50;;
40052;SDS011;25758;48.200;16.338;2023-12-20T15:48:11;2.38;;;1.02;;
40052;SDS011;25758;48.200;16.338;2023-12-20T16:03:43;4.57;;;1.60;;
40052;SDS011;25758;48.200;16.338;2023-12-20T16:06:09;3.05;;;1.75;;
40052;SDS011;25758;48.200;16.338;2023-12-20T16:08:41;2.72;;;1.05;;
40052;SDS011;25758;48.200;16.338;2023-12-20T16:11:07;3.22;;;0.90;;
40052;SDS011;25758;48.200;16.338;2023-12-20T16:13:33;2.42;;;0.90;;
40052;SDS011;25758;48.200;16.338;2023-12-20T16:16:03;3.33;;;1.17;;
40052;SDS011;25758;48.200;16.338;2023-12-20T16:21:26;2.20;;;0.95;;
40052;SDS011;25758;48.200;16.338;2023-12-20T16:23:51;3.80;;;0.88;;
40052;SDS011;25758;48.200;16.338;2023-12-20T16:29:08;2.15;;;1.23;;
40052;SDS011;25758;48.200;16.338;2023-12-20T16:31:36;1.83;;;0.77;;
40052;SDS011;25758;48.200;16.338;2023-12-20T16:34:01;1.10;;;0.57;;
40052;SDS011;25758;48.200;16.338;2023-12-20T16:36:29;2.05;;;0.63;;
40052;SDS011;25758;48.200;16.338;2023-12-20T16:39:43;1.55;;;0.40;;
40052;SDS011;25758;48.200;16.338;2023-12-20T16:42:09;2.80;;;0.90;;
40052;SDS011;25758;48.200;16.338;2023-12-20T17:44:26;2.55;;;0.57;;
40052;SDS011;25758;48.200;16.338;2023-12-20T17:46:52;3.08;;;0.80;;
40052;SDS011;25758;48.200;16.338;2023-12-20T17:49:18;2.90;;;0.73;;
40052;SDS011;25758;48.200;16.338;2023-12-20T17:51:44;5.05;;;0.73;;
40052;SDS011;25758;48.200;16.338;2023-12-20T17:54:11;1.73;;;0.47;;
40052;SDS011;25758;48.200;16.338;2023-12-20T17:56:37;3.17;;;0.82;;
40052;SDS011;25758;48.200;16.338;2023-12-20T17:59:18;6.55;;;2.60;;
40052;SDS011;25758;48.200;16.338;2023-12-20T18:02:00;11.82;;;3.72;;
